Kezdőlap
METAR-TAF:

METAR-TAF

Repülőterek :

Urgench, Üzbegisztán

földrajzi szélesség: 41-35N, földrajzi hosszúság: 060-38-42E, magasság: 98 m

Jelenlegi meteorológiai megfigyelések

A jelentés 45 perccel ezelõtt készült, 19:00 UTC
Szélcsend
Hőmérséklet -3°C
Páratartalom 63%
Légköri nyomás 1034 hPa
Látótávolság: 6000 m

METAR: UTNU 171900Z 00000KT 6000 NSC M03/M09 Q1034 R31/CLRD70 NOSIG

Idő: 00:45 (19:45 UTC)

Előrejelzés

A jelentés 2 órával és 44 perccel ezelõtt készült, 17:01 UTC
Az előrejelzés 17-én 18 óra UTC és 18-én 18 óra UTC között érvényes
Észak-északkeleti szél 8 kt széllökések: 18 kt
Látótávolság: 7000 m
17-én 18 óra UTC és 17-én 24 óra UTC között ideiglenes
Különbözõ irányokból fújó szél 4 kt
Látótávolság: 2000 m
Szakadozott felhőzet 10000 lábon
Párásság

TAF: UTNU 171701Z 1718/1818 02008G18KT 7000 NSC TEMPO 1718/1724 VRB04KT 2000 BR BKN100

Meteorológiai megfigyelések és előrejelzések több, mint 4000 repülőtéren (METAR és TAF jelentéseket).

A térképen piros és sárga pontok jelzik az elérhető meteorológiai állomásokat.

Mozgassa az egeret a pont fölött, hogy megjelenjen az állomás neve.

Azután kattintson az időjárási megfigyelések és előrejelzések megtekintéséhez.

A térkép megváltoztatása: kattintson a fekete keresztel jelölt zöld gombra ráközelítéshez, a vonallal jelölt zöld gombra távolításhoz, vagy a zöld nyilakra a szomszédos térképek eléréséhez.


METAR-TAF: